sensor_id;sensor_type;location;lat;lon;timestamp;P1;durP1;ratioP1;P2;durP2;ratioP2
74922;SDS011;64715;44.760;37.678;2023-04-25T00:00:29;5.85;;;1.30;;
74922;SDS011;64715;44.760;37.678;2023-04-25T00:01:31;8.10;;;1.77;;
74922;SDS011;64715;44.760;37.678;2023-04-25T00:02:33;4.90;;;1.07;;
74922;SDS011;64715;44.760;37.678;2023-04-25T00:03:35;4.20;;;1.20;;
74922;SDS011;64715;44.760;37.678;2023-04-25T00:04:36;6.40;;;1.40;;
74922;SDS011;64715;44.760;37.678;2023-04-25T00:05:38;6.47;;;1.55;;
74922;SDS011;64715;44.760;37.678;2023-04-25T00:06:39;10.90;;;1.50;;
74922;SDS011;64715;44.760;37.678;2023-04-25T00:07:40;6.28;;;1.52;;
74922;SDS011;64715;44.760;37.678;2023-04-25T00:08:43;6.05;;;1.73;;
74922;SDS011;64715;44.760;37.678;2023-04-25T00:09:44;5.28;;;1.50;;
74922;SDS011;64715;44.760;37.678;2023-04-25T00:10:46;6.13;;;1.40;;
74922;SDS011;64715;44.760;37.678;2023-04-25T00:11:47;6.30;;;1.43;;
74922;SDS011;64715;44.760;37.678;2023-04-25T00:12:48;5.57;;;1.80;;
74922;SDS011;64715;44.760;37.678;2023-04-25T00:13:49;6.70;;;1.70;;
74922;SDS011;64715;44.760;37.678;2023-04-25T00:14:54;9.63;;;1.55;;
74922;SDS011;64715;44.760;37.678;2023-04-25T00:15:57;8.57;;;1.85;;
74922;SDS011;64715;44.760;37.678;2023-04-25T00:16:58;8.07;;;1.48;;
74922;SDS011;64715;44.760;37.678;2023-04-25T00:17:59;5.47;;;1.52;;
74922;SDS011;64715;44.760;37.678;2023-04-25T00:19:01;5.20;;;1.40;;
74922;SDS011;64715;44.760;37.678;2023-04-25T00:20:02;6.13;;;1.47;;
74922;SDS011;64715;44.760;37.678;2023-04-25T00:21:05;6.77;;;1.80;;
74922;SDS011;64715;44.760;37.678;2023-04-25T00:24:59;6.10;;;1.08;;
74922;SDS011;64715;44.760;37.678;2023-04-25T00:26:00;4.85;;;1.20;;
74922;SDS011;64715;44.760;37.678;2023-04-25T00:27:01;5.05;;;1.42;;
74922;SDS011;64715;44.760;37.678;2023-04-25T00:28:02;5.10;;;1.42;;
74922;SDS011;64715;44.760;37.678;2023-04-25T00:31:16;5.47;;;1.30;;
74922;SDS011;64715;44.760;37.678;2023-04-25T00:32:17;5.28;;;1.33;;
74922;SDS011;64715;44.760;37.678;2023-04-25T00:33:19;4.50;;;1.10;;
74922;SDS011;64715;44.760;37.678;2023-04-25T00:34:20;5.30;;;1.50;;
74922;SDS011;64715;44.760;37.678;2023-04-25T00:35:21;6.07;;;1.60;;
74922;SDS011;64715;44.760;37.678;2023-04-25T00:36:22;5.53;;;1.67;;
74922;SDS011;64715;44.760;37.678;2023-04-25T00:37:23;5.75;;;1.50;;
74922;SDS011;64715;44.760;37.678;2023-04-25T00:38:24;5.00;;;1.38;;
74922;SDS011;64715;44.760;37.678;2023-04-25T00:39:26;4.72;;;1.30;;
74922;SDS011;64715;44.760;37.678;2023-04-25T00:40:27;6.43;;;1.47;;
74922;SDS011;64715;44.760;37.678;2023-04-25T00:44:06;4.38;;;0.95;;
74922;SDS011;64715;44.760;37.678;2023-04-25T00:45:10;5.53;;;1.38;;
74922;SDS011;64715;44.760;37.678;2023-04-25T00:46:14;5.22;;;1.50;;
74922;SDS011;64715;44.760;37.678;2023-04-25T00:47:15;8.10;;;1.40;;
74922;SDS011;64715;44.760;37.678;2023-04-25T00:48:17;6.22;;;1.77;;
74922;SDS011;64715;44.760;37.678;2023-04-25T00:49:17;5.38;;;1.42;;
74922;SDS011;64715;44.760;37.678;2023-04-25T00:50:18;7.28;;;1.80;;
74922;SDS011;64715;44.760;37.678;2023-04-25T00:51:20;5.87;;;1.87;;
74922;SDS011;64715;44.760;37.678;2023-04-25T00:52:22;6.32;;;1.65;;
74922;SDS011;64715;44.760;37.678;2023-04-25T00:53:24;6.05;;;1.35;;
74922;SDS011;64715;44.760;37.678;2023-04-25T00:54:27;7.93;;;1.65;;
74922;SDS011;64715;44.760;37.678;2023-04-25T00:55:28;6.60;;;1.70;;
74922;SDS011;64715;44.760;37.678;2023-04-25T00:56:31;5.05;;;1.38;;
74922;SDS011;64715;44.760;37.678;2023-04-25T00:57:32;5.93;;;1.50;;
74922;SDS011;64715;44.760;37.678;2023-04-25T00:58:34;5.63;;;1.73;;
74922;SDS011;64715;44.760;37.678;2023-04-25T00:59:35;7.18;;;1.85;;
74922;SDS011;64715;44.760;37.678;2023-04-25T01:00:37;5.50;;;1.33;;
74922;SDS011;64715;44.760;37.678;2023-04-25T01:01:39;5.60;;;1.70;;
74922;SDS011;64715;44.760;37.678;2023-04-25T01:02:40;6.55;;;1.63;;
74922;SDS011;64715;44.760;37.678;2023-04-25T01:03:42;13.32;;;2.17;;
74922;SDS011;64715;44.760;37.678;2023-04-25T01:04:45;5.40;;;1.30;;
74922;SDS011;64715;44.760;37.678;2023-04-25T01:05:47;14.00;;;1.38;;
74922;SDS011;64715;44.760;37.678;2023-04-25T01:06:48;4.63;;;1.13;;
74922;SDS011;64715;44.760;37.678;2023-04-25T01:07:50;6.25;;;1.60;;
74922;SDS011;64715;44.760;37.678;2023-04-25T01:08:51;9.75;;;1.63;;
74922;SDS011;64715;44.760;37.678;2023-04-25T01:09:53;6.25;;;1.50;;
74922;SDS011;64715;44.760;37.678;2023-04-25T01:10:54;4.80;;;1.20;;
74922;SDS011;64715;44.760;37.678;2023-04-25T01:11:55;7.17;;;1.60;;
74922;SDS011;64715;44.760;37.678;2023-04-25T01:12:58;4.70;;;1.13;;
74922;SDS011;64715;44.760;37.678;2023-04-25T01:13:59;5.85;;;1.30;;
74922;SDS011;64715;44.760;37.678;2023-04-25T01:15:02;6.13;;;1.50;;
74922;SDS011;64715;44.760;37.678;2023-04-25T01:16:04;4.43;;;1.10;;
74922;SDS011;64715;44.760;37.678;2023-04-25T01:17:06;6.32;;;1.48;;
74922;SDS011;64715;44.760;37.678;2023-04-25T01:18:08;5.47;;;1.52;;
74922;SDS011;64715;44.760;37.678;2023-04-25T01:19:10;5.05;;;1.10;;
74922;SDS011;64715;44.760;37.678;2023-04-25T01:20:12;8.80;;;1.38;;
74922;SDS011;64715;44.760;37.678;2023-04-25T01:21:14;9.23;;;1.30;;
74922;SDS011;64715;44.760;37.678;2023-04-25T01:22:16;6.13;;;1.70;;
74922;SDS011;64715;44.760;37.678;2023-04-25T01:23:18;8.35;;;1.65;;
74922;SDS011;64715;44.760;37.678;2023-04-25T01:24:20;5.40;;;1.50;;
74922;SDS011;64715;44.760;37.678;2023-04-25T01:25:22;6.35;;;1.40;;
74922;SDS011;64715;44.760;37.678;2023-04-25T01:26:23;5.30;;;1.20;;
74922;SDS011;64715;44.760;37.678;2023-04-25T01:27:25;4.78;;;1.30;;
74922;SDS011;64715;44.760;37.678;2023-04-25T01:28:27;9.55;;;1.35;;
74922;SDS011;64715;44.760;37.678;2023-04-25T01:29:31;7.13;;;1.60;;
74922;SDS011;64715;44.760;37.678;2023-04-25T01:30:32;4.57;;;1.02;;
74922;SDS011;64715;44.760;37.678;2023-04-25T01:31:33;4.53;;;1.03;;
74922;SDS011;64715;44.760;37.678;2023-04-25T01:32:35;5.77;;;1.57;;
74922;SDS011;64715;44.760;37.678;2023-04-25T01:33:38;5.10;;;1.17;;
74922;SDS011;64715;44.760;37.678;2023-04-25T01:34:39;7.50;;;1.48;;
74922;SDS011;64715;44.760;37.678;2023-04-25T01:35:41;4.28;;;1.10;;
74922;SDS011;64715;44.760;37.678;2023-04-25T01:36:42;5.95;;;1.40;;
74922;SDS011;64715;44.760;37.678;2023-04-25T01:37:43;5.68;;;1.05;;
74922;SDS011;64715;44.760;37.678;2023-04-25T01:38:46;5.25;;;1.42;;
74922;SDS011;64715;44.760;37.678;2023-04-25T01:39:47;6.93;;;1.20;;
74922;SDS011;64715;44.760;37.678;2023-04-25T01:40:50;7.03;;;1.45;;
74922;SDS011;64715;44.760;37.678;2023-04-25T01:41:53;5.73;;;1.37;;
74922;SDS011;64715;44.760;37.678;2023-04-25T01:42:54;6.37;;;1.50;;
74922;SDS011;64715;44.760;37.678;2023-04-25T01:43:56;5.30;;;1.30;;
74922;SDS011;64715;44.760;37.678;2023-04-25T01:44:57;5.80;;;1.15;;
74922;SDS011;64715;44.760;37.678;2023-04-25T01:45:58;5.20;;;1.20;;
74922;SDS011;64715;44.760;37.678;2023-04-25T01:46:59;6.30;;;1.65;;
74922;SDS011;64715;44.760;37.678;2023-04-25T01:48:02;9.95;;;1.98;;
74922;SDS011;64715;44.760;37.678;2023-04-25T01:49:03;5.07;;;1.27;;
74922;SDS011;64715;44.760;37.678;2023-04-25T01:50:05;10.52;;;1.48;;
74922;SDS011;64715;44.760;37.678;2023-04-25T01:51:08;6.78;;;1.30;;
74922;SDS011;64715;44.760;37.678;2023-04-25T01:52:12;5.97;;;1.50;;
74922;SDS011;64715;44.760;37.678;2023-04-25T01:53:13;6.33;;;1.60;;
74922;SDS011;64715;44.760;37.678;2023-04-25T01:54:17;5.57;;;1.27;;
74922;SDS011;64715;44.760;37.678;2023-04-25T01:55:20;7.90;;;1.45;;
74922;SDS011;64715;44.760;37.678;2023-04-25T01:56:42;4.53;;;1.13;;
74922;SDS011;64715;44.760;37.678;2023-04-25T01:57:44;5.45;;;1.10;;
74922;SDS011;64715;44.760;37.678;2023-04-25T01:58:46;5.80;;;1.48;;
74922;SDS011;64715;44.760;37.678;2023-04-25T02:00:05;6.50;;;1.17;;
74922;SDS011;64715;44.760;37.678;2023-04-25T02:01:13;5.20;;;1.40;;
74922;SDS011;64715;44.760;37.678;2023-04-25T02:02:20;10.23;;;1.40;;
74922;SDS011;64715;44.760;37.678;2023-04-25T02:03:21;6.80;;;1.70;;
74922;SDS011;64715;44.760;37.678;2023-04-25T02:04:22;7.18;;;1.90;;
74922;SDS011;64715;44.760;37.678;2023-04-25T02:05:23;4.13;;;1.08;;
74922;SDS011;64715;44.760;37.678;2023-04-25T02:06:25;7.40;;;1.83;;
74922;SDS011;64715;44.760;37.678;2023-04-25T02:07:28;5.35;;;1.50;;
74922;SDS011;64715;44.760;37.678;2023-04-25T02:08:30;10.57;;;1.80;;
74922;SDS011;64715;44.760;37.678;2023-04-25T02:09:31;5.88;;;1.70;;
74922;SDS011;64715;44.760;37.678;2023-04-25T02:10:33;8.38;;;1.60;;
74922;SDS011;64715;44.760;37.678;2023-04-25T02:11:53;5.83;;;1.63;;
74922;SDS011;64715;44.760;37.678;2023-04-25T02:13:07;6.50;;;1.80;;
74922;SDS011;64715;44.760;37.678;2023-04-25T02:14:16;7.57;;;1.30;;
74922;SDS011;64715;44.760;37.678;2023-04-25T02:15:33;6.07;;;1.35;;
74922;SDS011;64715;44.760;37.678;2023-04-25T02:16:45;5.05;;;1.58;;
74922;SDS011;64715;44.760;37.678;2023-04-25T02:17:46;7.82;;;1.70;;
74922;SDS011;64715;44.760;37.678;2023-04-25T02:18:47;7.05;;;1.60;;
74922;SDS011;64715;44.760;37.678;2023-04-25T02:19:48;5.60;;;1.48;;
74922;SDS011;64715;44.760;37.678;2023-04-25T02:20:50;6.13;;;1.63;;
74922;SDS011;64715;44.760;37.678;2023-04-25T02:21:51;6.97;;;1.43;;
74922;SDS011;64715;44.760;37.678;2023-04-25T02:22:52;9.10;;;2.13;;
74922;SDS011;64715;44.760;37.678;2023-04-25T02:23:54;6.97;;;2.03;;
74922;SDS011;64715;44.760;37.678;2023-04-25T02:24:55;6.53;;;1.85;;
74922;SDS011;64715;44.760;37.678;2023-04-25T02:25:56;6.13;;;1.73;;
74922;SDS011;64715;44.760;37.678;2023-04-25T02:26:57;18.47;;;2.20;;
74922;SDS011;64715;44.760;37.678;2023-04-25T02:27:58;8.15;;;2.05;;
74922;SDS011;64715;44.760;37.678;2023-04-25T02:28:59;9.95;;;2.00;;
74922;SDS011;64715;44.760;37.678;2023-04-25T02:30:03;5.20;;;1.75;;
74922;SDS011;64715;44.760;37.678;2023-04-25T02:31:07;6.38;;;2.00;;
74922;SDS011;64715;44.760;37.678;2023-04-25T02:32:08;8.35;;;2.42;;
74922;SDS011;64715;44.760;37.678;2023-04-25T02:33:09;7.73;;;2.13;;
74922;SDS011;64715;44.760;37.678;2023-04-25T02:34:10;5.60;;;1.60;;
74922;SDS011;64715;44.760;37.678;2023-04-25T02:35:12;7.88;;;1.90;;
74922;SDS011;64715;44.760;37.678;2023-04-25T02:36:13;7.13;;;2.03;;
74922;SDS011;64715;44.760;37.678;2023-04-25T02:37:15;8.77;;;1.80;;
74922;SDS011;64715;44.760;37.678;2023-04-25T02:38:19;6.85;;;1.92;;
74922;SDS011;64715;44.760;37.678;2023-04-25T02:39:20;6.28;;;1.88;;
74922;SDS011;64715;44.760;37.678;2023-04-25T02:40:23;9.38;;;1.90;;
74922;SDS011;64715;44.760;37.678;2023-04-25T02:41:24;6.93;;;2.43;;
74922;SDS011;64715;44.760;37.678;2023-04-25T02:42:25;5.70;;;1.70;;
74922;SDS011;64715;44.760;37.678;2023-04-25T02:43:27;9.73;;;2.25;;
74922;SDS011;64715;44.760;37.678;2023-04-25T02:44:27;6.78;;;2.25;;
74922;SDS011;64715;44.760;37.678;2023-04-25T02:45:28;7.63;;;2.00;;
74922;SDS011;64715;44.760;37.678;2023-04-25T02:46:30;7.38;;;1.90;;
74922;SDS011;64715;44.760;37.678;2023-04-25T02:47:31;6.30;;;2.50;;
74922;SDS011;64715;44.760;37.678;2023-04-25T02:48:32;7.25;;;2.33;;
74922;SDS011;64715;44.760;37.678;2023-04-25T02:49:32;9.40;;;2.13;;
74922;SDS011;64715;44.760;37.678;2023-04-25T02:50:34;8.48;;;1.88;;
74922;SDS011;64715;44.760;37.678;2023-04-25T02:51:35;7.32;;;1.90;;
74922;SDS011;64715;44.760;37.678;2023-04-25T02:52:36;7.15;;;2.10;;
74922;SDS011;64715;44.760;37.678;2023-04-25T02:53:45;6.85;;;2.35;;
74922;SDS011;64715;44.760;37.678;2023-04-25T02:54:46;7.55;;;2.22;;
74922;SDS011;64715;44.760;37.678;2023-04-25T02:55:47;8.85;;;2.47;;
74922;SDS011;64715;44.760;37.678;2023-04-25T02:56:48;8.00;;;2.40;;
74922;SDS011;64715;44.760;37.678;2023-04-25T02:57:55;7.97;;;2.17;;
74922;SDS011;64715;44.760;37.678;2023-04-25T02:59:08;7.50;;;2.65;;
74922;SDS011;64715;44.760;37.678;2023-04-25T03:00:09;8.25;;;2.30;;
74922;SDS011;64715;44.760;37.678;2023-04-25T03:01:12;7.82;;;1.83;;
74922;SDS011;64715;44.760;37.678;2023-04-25T03:02:13;7.03;;;2.58;;
74922;SDS011;64715;44.760;37.678;2023-04-25T03:03:14;9.18;;;2.05;;
74922;SDS011;64715;44.760;37.678;2023-04-25T03:04:17;7.18;;;2.15;;
74922;SDS011;64715;44.760;37.678;2023-04-25T03:05:19;7.72;;;2.20;;
74922;SDS011;64715;44.760;37.678;2023-04-25T03:06:20;9.03;;;2.90;;
74922;SDS011;64715;44.760;37.678;2023-04-25T03:07:21;6.75;;;1.85;;
74922;SDS011;64715;44.760;37.678;2023-04-25T03:08:23;5.80;;;1.77;;
74922;SDS011;64715;44.760;37.678;2023-04-25T03:09:25;9.57;;;2.50;;
74922;SDS011;64715;44.760;37.678;2023-04-25T03:10:26;10.23;;;2.58;;
74922;SDS011;64715;44.760;37.678;2023-04-25T03:11:28;8.13;;;1.90;;
74922;SDS011;64715;44.760;37.678;2023-04-25T03:12:29;7.93;;;2.60;;
74922;SDS011;64715;44.760;37.678;2023-04-25T03:13:30;8.52;;;2.55;;
74922;SDS011;64715;44.760;37.678;2023-04-25T03:14:32;10.17;;;2.27;;
74922;SDS011;64715;44.760;37.678;2023-04-25T03:15:33;8.20;;;2.10;;
74922;SDS011;64715;44.760;37.678;2023-04-25T03:16:35;5.95;;;1.80;;
74922;SDS011;64715;44.760;37.678;2023-04-25T03:17:36;6.35;;;1.90;;
74922;SDS011;64715;44.760;37.678;2023-04-25T03:18:38;8.20;;;2.30;;
74922;SDS011;64715;44.760;37.678;2023-04-25T03:19:39;10.77;;;1.83;;
74922;SDS011;64715;44.760;37.678;2023-04-25T03:20:40;7.45;;;2.60;;
74922;SDS011;64715;44.760;37.678;2023-04-25T03:21:43;7.80;;;2.00;;
74922;SDS011;64715;44.760;37.678;2023-04-25T03:22:44;7.88;;;1.80;;
74922;SDS011;64715;44.760;37.678;2023-04-25T03:23:45;6.57;;;2.20;;
74922;SDS011;64715;44.760;37.678;2023-04-25T03:24:46;6.80;;;2.00;;
74922;SDS011;64715;44.760;37.678;2023-04-25T03:25:48;7.13;;;1.90;;
74922;SDS011;64715;44.760;37.678;2023-04-25T03:26:49;8.60;;;2.25;;
74922;SDS011;64715;44.760;37.678;2023-04-25T03:27:51;8.40;;;1.85;;
74922;SDS011;64715;44.760;37.678;2023-04-25T03:28:52;7.20;;;2.08;;
74922;SDS011;64715;44.760;37.678;2023-04-25T03:29:53;6.70;;;1.90;;
74922;SDS011;64715;44.760;37.678;2023-04-25T03:30:54;12.45;;;2.03;;
74922;SDS011;64715;44.760;37.678;2023-04-25T03:31:55;21.53;;;2.07;;
74922;SDS011;64715;44.760;37.678;2023-04-25T03:32:56;6.50;;;2.17;;
74922;SDS011;64715;44.760;37.678;2023-04-25T03:36:31;7.22;;;1.70;;
74922;SDS011;64715;44.760;37.678;2023-04-25T03:37:34;5.65;;;1.80;;
74922;SDS011;64715;44.760;37.678;2023-04-25T03:38:35;9.77;;;2.25;;
74922;SDS011;64715;44.760;37.678;2023-04-25T03:41:58;6.40;;;1.80;;
74922;SDS011;64715;44.760;37.678;2023-04-25T03:43:02;6.05;;;1.88;;
74922;SDS011;64715;44.760;37.678;2023-04-25T03:44:03;7.60;;;1.77;;
74922;SDS011;64715;44.760;37.678;2023-04-25T03:45:04;6.10;;;2.00;;
74922;SDS011;64715;44.760;37.678;2023-04-25T04:33:26;5.80;;;1.83;;
74922;SDS011;64715;44.760;37.678;2023-04-25T04:34:33;7.35;;;2.72;;
74922;SDS011;64715;44.760;37.678;2023-04-25T04:35:36;8.13;;;2.60;;
74922;SDS011;64715;44.760;37.678;2023-04-25T04:36:37;8.88;;;2.60;;
74922;SDS011;64715;44.760;37.678;2023-04-25T04:37:38;12.80;;;3.13;;
74922;SDS011;64715;44.760;37.678;2023-04-25T04:38:40;11.65;;;2.78;;
74922;SDS011;64715;44.760;37.678;2023-04-25T04:39:47;11.43;;;2.88;;
74922;SDS011;64715;44.760;37.678;2023-04-25T04:41:01;9.93;;;2.55;;
74922;SDS011;64715;44.760;37.678;2023-04-25T04:42:14;11.63;;;3.33;;
74922;SDS011;64715;44.760;37.678;2023-04-25T04:43:48;6.60;;;2.20;;
74922;SDS011;64715;44.760;37.678;2023-04-25T04:45:08;9.65;;;3.17;;
74922;SDS011;64715;44.760;37.678;2023-04-25T04:46:19;9.10;;;2.63;;
74922;SDS011;64715;44.760;37.678;2023-04-25T04:47:40;10.07;;;2.92;;
74922;SDS011;64715;44.760;37.678;2023-04-25T04:48:59;10.55;;;2.80;;
74922;SDS011;64715;44.760;37.678;2023-04-25T04:50:36;9.52;;;3.40;;
74922;SDS011;64715;44.760;37.678;2023-04-25T04:51:40;9.07;;;2.90;;
74922;SDS011;64715;44.760;37.678;2023-04-25T04:53:00;9.18;;;2.40;;
74922;SDS011;64715;44.760;37.678;2023-04-25T04:54:27;9.35;;;3.33;;
74922;SDS011;64715;44.760;37.678;2023-04-25T04:55:45;9.73;;;3.37;;
74922;SDS011;64715;44.760;37.678;2023-04-25T04:57:02;8.73;;;3.20;;
74922;SDS011;64715;44.760;37.678;2023-04-25T05:00:43;8.77;;;3.22;;
74922;SDS011;64715;44.760;37.678;2023-04-25T05:01:53;7.00;;;2.58;;
74922;SDS011;64715;44.760;37.678;2023-04-25T05:03:15;13.23;;;3.22;;
74922;SDS011;64715;44.760;37.678;2023-04-25T05:04:40;10.65;;;3.28;;
74922;SDS011;64715;44.760;37.678;2023-04-25T05:05:58;10.52;;;3.08;;
74922;SDS011;64715;44.760;37.678;2023-04-25T05:07:25;7.93;;;2.55;;
74922;SDS011;64715;44.760;37.678;2023-04-25T05:08:52;8.07;;;2.42;;
74922;SDS011;64715;44.760;37.678;2023-04-25T05:10:26;9.37;;;2.10;;
74922;SDS011;64715;44.760;37.678;2023-04-25T05:11:53;8.63;;;2.77;;
74922;SDS011;64715;44.760;37.678;2023-04-25T05:13:12;8.38;;;2.55;;
74922;SDS011;64715;44.760;37.678;2023-04-25T05:14:45;7.90;;;2.72;;
74922;SDS011;64715;44.760;37.678;2023-04-25T05:16:11;9.70;;;2.80;;
74922;SDS011;64715;44.760;37.678;2023-04-25T05:17:47;13.23;;;3.38;;
74922;SDS011;64715;44.760;37.678;2023-04-25T05:19:23;9.65;;;2.53;;
74922;SDS011;64715;44.760;37.678;2023-04-25T05:20:43;9.13;;;2.67;;
74922;SDS011;64715;44.760;37.678;2023-04-25T05:21:57;9.70;;;3.08;;
74922;SDS011;64715;44.760;37.678;2023-04-25T05:23:05;8.75;;;2.72;;
74922;SDS011;64715;44.760;37.678;2023-04-25T05:24:26;7.60;;;2.85;;
74922;SDS011;64715;44.760;37.678;2023-04-25T05:25:46;10.30;;;3.20;;
74922;SDS011;64715;44.760;37.678;2023-04-25T05:26:56;8.27;;;3.20;;
74922;SDS011;64715;44.760;37.678;2023-04-25T05:28:16;8.70;;;3.58;;
74922;SDS011;64715;44.760;37.678;2023-04-25T05:29:33;11.75;;;3.72;;
74922;SDS011;64715;44.760;37.678;2023-04-25T05:30:51;11.35;;;2.97;;
74922;SDS011;64715;44.760;37.678;2023-04-25T05:32:15;9.35;;;3.20;;
74922;SDS011;64715;44.760;37.678;2023-04-25T05:33:16;11.73;;;3.42;;
74922;SDS011;64715;44.760;37.678;2023-04-25T05:34:18;7.70;;;2.65;;
74922;SDS011;64715;44.760;37.678;2023-04-25T05:35:39;10.65;;;3.72;;
74922;SDS011;64715;44.760;37.678;2023-04-25T05:36:40;11.40;;;2.77;;
74922;SDS011;64715;44.760;37.678;2023-04-25T05:37:43;8.80;;;2.73;;
74922;SDS011;64715;44.760;37.678;2023-04-25T05:38:46;7.78;;;2.67;;
74922;SDS011;64715;44.760;37.678;2023-04-25T05:40:16;9.77;;;3.38;;
74922;SDS011;64715;44.760;37.678;2023-04-25T05:41:26;9.70;;;3.92;;
74922;SDS011;64715;44.760;37.678;2023-04-25T05:42:34;11.38;;;4.18;;
74922;SDS011;64715;44.760;37.678;2023-04-25T05:43:54;13.13;;;3.05;;
74922;SDS011;64715;44.760;37.678;2023-04-25T05:45:16;10.23;;;3.22;;
74922;SDS011;64715;44.760;37.678;2023-04-25T05:46:43;9.32;;;3.25;;
74922;SDS011;64715;44.760;37.678;2023-04-25T05:48:03;10.35;;;3.22;;
74922;SDS011;64715;44.760;37.678;2023-04-25T05:49:36;15.90;;;3.90;;
74922;SDS011;64715;44.760;37.678;2023-04-25T05:50:52;8.07;;;2.90;;
74922;SDS011;64715;44.760;37.678;2023-04-25T05:52:19;8.88;;;2.60;;
74922;SDS011;64715;44.760;37.678;2023-04-25T05:53:50;11.82;;;3.25;;
74922;SDS011;64715;44.760;37.678;2023-04-25T05:54:51;7.35;;;3.13;;
74922;SDS011;64715;44.760;37.678;2023-04-25T05:55:52;8.27;;;2.78;;
74922;SDS011;64715;44.760;37.678;2023-04-25T05:56:56;7.75;;;3.00;;
74922;SDS011;64715;44.760;37.678;2023-04-25T05:57:58;8.63;;;3.25;;
74922;SDS011;64715;44.760;37.678;2023-04-25T05:58:59;10.55;;;2.72;;
74922;SDS011;64715;44.760;37.678;2023-04-25T06:00:00;7.80;;;2.73;;
74922;SDS011;64715;44.760;37.678;2023-04-25T06:01:13;7.63;;;2.78;;
74922;SDS011;64715;44.760;37.678;2023-04-25T06:02:14;9.30;;;2.90;;
74922;SDS011;64715;44.760;37.678;2023-04-25T06:03:16;10.70;;;3.45;;
74922;SDS011;64715;44.760;37.678;2023-04-25T06:04:19;10.63;;;4.03;;
74922;SDS011;64715;44.760;37.678;2023-04-25T06:05:20;16.20;;;6.45;;
74922;SDS011;64715;44.760;37.678;2023-04-25T06:06:21;9.02;;;3.40;;
74922;SDS011;64715;44.760;37.678;2023-04-25T06:07:22;7.80;;;3.08;;
74922;SDS011;64715;44.760;37.678;2023-04-25T06:08:23;8.57;;;2.80;;
74922;SDS011;64715;44.760;37.678;2023-04-25T06:09:24;11.30;;;3.17;;
74922;SDS011;64715;44.760;37.678;2023-04-25T06:10:27;9.70;;;3.40;;
74922;SDS011;64715;44.760;37.678;2023-04-25T06:11:53;7.78;;;2.60;;
74922;SDS011;64715;44.760;37.678;2023-04-25T06:13:15;10.13;;;3.10;;
74922;SDS011;64715;44.760;37.678;2023-04-25T06:14:40;8.48;;;3.30;;
74922;SDS011;64715;44.760;37.678;2023-04-25T06:16:06;11.60;;;3.25;;
74922;SDS011;64715;44.760;37.678;2023-04-25T06:17:32;11.63;;;3.53;;
74922;SDS011;64715;44.760;37.678;2023-04-25T06:18:58;11.48;;;5.07;;
74922;SDS011;64715;44.760;37.678;2023-04-25T06:20:18;7.50;;;2.72;;
74922;SDS011;64715;44.760;37.678;2023-04-25T06:21:42;8.73;;;2.97;;
74922;SDS011;64715;44.760;37.678;2023-04-25T06:23:03;13.70;;;3.50;;
74922;SDS011;64715;44.760;37.678;2023-04-25T06:24:23;8.30;;;2.78;;
74922;SDS011;64715;44.760;37.678;2023-04-25T06:25:46;9.95;;;2.90;;
74922;SDS011;64715;44.760;37.678;2023-04-25T06:27:12;6.78;;;2.65;;
74922;SDS011;64715;44.760;37.678;2023-04-25T06:28:32;7.18;;;2.90;;
74922;SDS011;64715;44.760;37.678;2023-04-25T06:29:51;8.52;;;2.38;;
74922;SDS011;64715;44.760;37.678;2023-04-25T06:30:53;7.63;;;2.70;;
74922;SDS011;64715;44.760;37.678;2023-04-25T06:31:54;8.60;;;3.00;;
74922;SDS011;64715;44.760;37.678;2023-04-25T06:32:56;9.02;;;3.22;;
74922;SDS011;64715;44.760;37.678;2023-04-25T06:34:00;10.47;;;3.33;;
74922;SDS011;64715;44.760;37.678;2023-04-25T06:35:03;10.13;;;3.00;;
74922;SDS011;64715;44.760;37.678;2023-04-25T06:36:07;6.97;;;2.53;;
74922;SDS011;64715;44.760;37.678;2023-04-25T06:37:09;8.65;;;2.53;;
74922;SDS011;64715;44.760;37.678;2023-04-25T06:38:10;8.90;;;2.78;;
74922;SDS011;64715;44.760;37.678;2023-04-25T06:39:12;7.35;;;2.72;;
74922;SDS011;64715;44.760;37.678;2023-04-25T06:40:13;9.40;;;2.83;;
74922;SDS011;64715;44.760;37.678;2023-04-25T06:41:15;10.13;;;2.85;;
74922;SDS011;64715;44.760;37.678;2023-04-25T06:42:41;9.50;;;4.07;;
74922;SDS011;64715;44.760;37.678;2023-04-25T06:44:07;7.53;;;2.50;;
74922;SDS011;64715;44.760;37.678;2023-04-25T06:45:33;7.10;;;2.40;;
74922;SDS011;64715;44.760;37.678;2023-04-25T06:46:59;6.50;;;2.47;;
74922;SDS011;64715;44.760;37.678;2023-04-25T07:29:32;9.80;;;2.80;;
74922;SDS011;64715;44.760;37.678;2023-04-25T07:30:37;8.32;;;2.78;;
74922;SDS011;64715;44.760;37.678;2023-04-25T07:31:38;8.83;;;2.30;;
74922;SDS011;64715;44.760;37.678;2023-04-25T07:32:39;12.45;;;2.90;;
74922;SDS011;64715;44.760;37.678;2023-04-25T07:33:41;8.82;;;3.10;;
74922;SDS011;64715;44.760;37.678;2023-04-25T07:34:42;12.93;;;7.38;;
74922;SDS011;64715;44.760;37.678;2023-04-25T07:35:43;8.63;;;3.10;;
74922;SDS011;64715;44.760;37.678;2023-04-25T07:36:45;8.38;;;2.78;;
74922;SDS011;64715;44.760;37.678;2023-04-25T07:37:46;8.63;;;2.70;;
74922;SDS011;64715;44.760;37.678;2023-04-25T07:38:50;7.30;;;2.72;;
74922;SDS011;64715;44.760;37.678;2023-04-25T07:39:51;10.67;;;3.10;;
74922;SDS011;64715;44.760;37.678;2023-04-25T07:40:52;7.03;;;2.33;;
74922;SDS011;64715;44.760;37.678;2023-04-25T07:41:53;17.85;;;2.90;;
74922;SDS011;64715;44.760;37.678;2023-04-25T07:42:58;7.72;;;2.30;;
74922;SDS011;64715;44.760;37.678;2023-04-25T07:44:22;8.95;;;2.78;;
74922;SDS011;64715;44.760;37.678;2023-04-25T07:45:23;10.90;;;2.50;;
74922;SDS011;64715;44.760;37.678;2023-04-25T07:46:25;7.05;;;2.10;;
74922;SDS011;64715;44.760;37.678;2023-04-25T07:47:26;9.75;;;2.92;;
74922;SDS011;64715;44.760;37.678;2023-04-25T07:48:27;7.60;;;2.60;;
74922;SDS011;64715;44.760;37.678;2023-04-25T07:49:28;10.10;;;2.85;;
74922;SDS011;64715;44.760;37.678;2023-04-25T07:50:29;6.82;;;2.50;;
74922;SDS011;64715;44.760;37.678;2023-04-25T07:51:31;9.93;;;2.72;;
74922;SDS011;64715;44.760;37.678;2023-04-25T07:52:37;8.23;;;2.50;;
74922;SDS011;64715;44.760;37.678;2023-04-25T07:53:47;13.85;;;2.67;;
74922;SDS011;64715;44.760;37.678;2023-04-25T07:54:50;8.95;;;2.45;;
74922;SDS011;64715;44.760;37.678;2023-04-25T07:55:56;7.00;;;2.80;;
74922;SDS011;64715;44.760;37.678;2023-04-25T07:56:58;7.57;;;2.70;;
74922;SDS011;64715;44.760;37.678;2023-04-25T07:58:02;8.30;;;2.85;;
74922;SDS011;64715;44.760;37.678;2023-04-25T07:59:05;9.13;;;2.97;;
74922;SDS011;64715;44.760;37.678;2023-04-25T08:00:06;6.80;;;2.45;;
74922;SDS011;64715;44.760;37.678;2023-04-25T08:01:14;7.53;;;1.92;;
74922;SDS011;64715;44.760;37.678;2023-04-25T08:02:23;9.52;;;2.28;;
74922;SDS011;64715;44.760;37.678;2023-04-25T08:03:26;8.00;;;2.72;;
74922;SDS011;64715;44.760;37.678;2023-04-25T08:04:28;8.05;;;2.53;;
74922;SDS011;64715;44.760;37.678;2023-04-25T08:05:34;6.95;;;2.33;;
74922;SDS011;64715;44.760;37.678;2023-04-25T08:06:38;6.95;;;2.10;;
74922;SDS011;64715;44.760;37.678;2023-04-25T08:07:49;9.43;;;2.80;;
74922;SDS011;64715;44.760;37.678;2023-04-25T08:08:51;14.18;;;3.13;;
74922;SDS011;64715;44.760;37.678;2023-04-25T08:09:55;8.90;;;2.40;;
74922;SDS011;64715;44.760;37.678;2023-04-25T08:11:00;8.63;;;3.20;;
74922;SDS011;64715;44.760;37.678;2023-04-25T08:12:02;8.65;;;3.08;;
74922;SDS011;64715;44.760;37.678;2023-04-25T08:13:06;7.90;;;2.70;;
74922;SDS011;64715;44.760;37.678;2023-04-25T08:14:07;6.75;;;2.30;;
74922;SDS011;64715;44.760;37.678;2023-04-25T08:15:09;10.35;;;2.95;;
74922;SDS011;64715;44.760;37.678;2023-04-25T08:16:13;10.80;;;3.42;;